createdAt,value
2019-03-27T00:00:18.905Z,101978.48
2019-03-27T00:02:49.546Z,101975.83
2019-03-27T00:05:20.093Z,101981.77
2019-03-27T00:07:50.946Z,101981.70
2019-03-27T00:10:21.291Z,101982.94
2019-03-27T00:12:51.672Z,101982.47
2019-03-27T00:15:22.576Z,101987.34
2019-03-27T00:17:53.140Z,101986.44
2019-03-27T00:20:23.683Z,101991.14
2019-03-27T00:22:57.793Z,101993.20
2019-03-27T00:25:28.357Z,101991.27
2019-03-27T00:27:58.902Z,101996.88
2019-03-27T00:30:29.607Z,101995.72
2019-03-27T00:33:02.502Z,101997.42
2019-03-27T00:35:34.328Z,101999.94
2019-03-27T00:38:05.091Z,101999.80
2019-03-27T00:40:35.780Z,101999.36
2019-03-27T00:43:06.509Z,101998.84
2019-03-27T00:45:37.806Z,102000.16
2019-03-27T00:48:08.535Z,101997.45
2019-03-27T00:50:39.029Z,101998.69
2019-03-27T00:53:09.447Z,101999.37
2019-03-27T00:55:40.180Z,102004.42
2019-03-27T00:58:10.876Z,102004.85
2019-03-27T01:00:44.746Z,101999.06
2019-03-27T01:03:15.421Z,101995.25
2019-03-27T01:05:45.966Z,101998.70
2019-03-27T01:08:16.908Z,102001.23
2019-03-27T01:10:47.602Z,102002.70
2019-03-27T01:13:18.166Z,102014.27
2019-03-27T01:15:48.840Z,102012.08
2019-03-27T01:18:19.285Z,102011.23
2019-03-27T01:20:49.726Z,102010.13
2019-03-27T01:23:20.295Z,102017.06
2019-03-27T01:25:51.137Z,102018.54
2019-03-27T01:28:21.698Z,102013.05
2019-03-27T01:30:52.579Z,102009.37
2019-03-27T01:33:23.378Z,102010.30
2019-03-27T01:35:53.721Z,102019.47
2019-03-27T01:38:24.363Z,102023.30
2019-03-27T01:40:54.991Z,102028.45
2019-03-27T01:43:25.615Z,102032.34
2019-03-27T01:45:56.849Z,102032.68
2019-03-27T01:48:27.491Z,102036.86
2019-03-27T01:50:58.213Z,102034.50
2019-03-27T01:53:29.740Z,102035.32
2019-03-27T01:56:00.214Z,102034.50
2019-03-27T01:58:30.821Z,102041.82
2019-03-27T02:01:01.445Z,102046.56
2019-03-27T02:03:32.439Z,102047.63
2019-03-27T02:06:02.999Z,102057.47
2019-03-27T02:08:33.391Z,102044.91
2019-03-27T02:11:03.868Z,102050.59
2019-03-27T02:13:34.696Z,102056.34
2019-03-27T02:16:07.364Z,102051.80
2019-03-27T02:18:38.275Z,102052.32
2019-03-27T02:21:09.161Z,102044.28
2019-03-27T02:23:39.678Z,102048.30
2019-03-27T02:26:11.410Z,102053.57
2019-03-27T02:28:42.125Z,102046.34
2019-03-27T02:31:12.820Z,102050.16
2019-03-27T02:33:43.321Z,102057.67
2019-03-27T02:36:13.722Z,102050.65
2019-03-27T02:38:44.444Z,102049.92
2019-03-27T02:41:14.975Z,102054.97
2019-03-27T02:43:46.115Z,102057.22
2019-03-27T02:46:24.329Z,102051.75
2019-03-27T02:48:49.958Z,102048.77
2019-03-27T02:51:20.575Z,102049.16
2019-03-27T02:53:51.612Z,102051.77
2019-03-27T02:56:21.939Z,102047.36
2019-03-27T02:58:52.387Z,102043.28
2019-03-27T03:01:22.800Z,102063.71
2019-03-27T03:03:53.286Z,102054.08
2019-03-27T03:06:24.075Z,102059.91
2019-03-27T03:08:55.512Z,102063.77
2019-03-27T03:11:25.879Z,102064.65
2019-03-27T03:13:56.365Z,102062.36
2019-03-27T03:16:41.214Z,102064.37
2019-03-27T03:18:59.046Z,102068.13
2019-03-27T03:21:29.540Z,102066.23
2019-03-27T03:24:00.031Z,102066.34
2019-03-27T03:26:30.901Z,102066.60
2019-03-27T03:29:01.499Z,102058.55
2019-03-27T03:31:31.977Z,102052.62
2019-03-27T03:34:02.650Z,102059.36
2019-03-27T03:36:34.060Z,102053.92
2019-03-27T03:39:06.136Z,102059.38
2019-03-27T03:41:36.593Z,102068.08
2019-03-27T03:44:07.288Z,102063.30
2019-03-27T03:46:38.634Z,102064.60
2019-03-27T03:49:10.168Z,102068.84
2019-03-27T03:51:40.794Z,102075.17
2019-03-27T03:54:11.789Z,102078.96
2019-03-27T03:56:42.241Z,102083.91
2019-03-27T03:59:12.944Z,102087.13
2019-03-27T04:01:44.156Z,102086.38
2019-03-27T04:04:14.892Z,102084.58
2019-03-27T04:06:45.300Z,102085.27
2019-03-27T04:09:15.885Z,102082.66
2019-03-27T04:11:46.695Z,102081.46
2019-03-27T04:14:18.317Z,102086.41
2019-03-27T04:16:48.720Z,102091.42
2019-03-27T04:19:19.613Z,102087.44
2019-03-27T04:21:50.179Z,102088.09
2019-03-27T04:24:20.527Z,102090.63
2019-03-27T04:26:51.347Z,102094.48
2019-03-27T04:29:22.226Z,102098.91
2019-03-27T04:31:52.731Z,102092.86
2019-03-27T04:34:23.275Z,102095.66
2019-03-27T04:36:53.859Z,102101.75
2019-03-27T04:39:24.746Z,102109.77
2019-03-27T04:41:55.184Z,102115.44
2019-03-27T04:44:25.895Z,102110.56
2019-03-27T04:46:56.568Z,102119.94
2019-03-27T04:49:27.243Z,102116.39
2019-03-27T04:51:57.807Z,102121.82
2019-03-27T04:54:28.643Z,102123.00
2019-03-27T04:56:59.052Z,102125.19
2019-03-27T04:59:29.498Z,102132.52
2019-03-27T05:01:59.862Z,102133.84
2019-03-27T05:04:30.631Z,102137.44
2019-03-27T05:07:01.087Z,102146.69
2019-03-27T05:09:31.909Z,102155.28
2019-03-27T05:12:02.494Z,102151.48
2019-03-27T05:14:32.999Z,102155.20
2019-03-27T05:17:03.585Z,102158.67
2019-03-27T05:19:34.098Z,102153.52
2019-03-27T05:22:04.787Z,102147.22
2019-03-27T05:24:35.407Z,102141.12
2019-03-27T05:27:06.023Z,102149.06
2019-03-27T05:29:36.999Z,102147.02
2019-03-27T05:32:07.610Z,102145.44
2019-03-27T05:34:38.233Z,102138.53
2019-03-27T05:37:08.972Z,102140.14
2019-03-27T05:39:39.659Z,102137.83
2019-03-27T05:42:10.267Z,102142.52
2019-03-27T05:44:41.385Z,102143.64
2019-03-27T05:47:12.180Z,102143.70
2019-03-27T05:49:42.795Z,102150.34
2019-03-27T05:52:17.318Z,102144.44
2019-03-27T05:54:47.637Z,102152.53
2019-03-27T05:57:18.075Z,102155.44
2019-03-27T05:59:48.738Z,102169.27
2019-03-27T06:02:19.650Z,102171.33
2019-03-27T06:04:50.397Z,102172.95
2019-03-27T06:07:20.949Z,102172.30
2019-03-27T06:09:51.749Z,102174.78
2019-03-27T06:12:22.435Z,102174.72
2019-03-27T06:14:54.324Z,102182.55
2019-03-27T06:17:24.823Z,102180.30
2019-03-27T06:19:55.382Z,102184.60
2019-03-27T06:22:26.295Z,102185.83
2019-03-27T06:24:56.741Z,102178.17
2019-03-27T06:27:27.488Z,102183.58
2019-03-27T06:29:58.424Z,102182.74
2019-03-27T06:32:28.849Z,102171.88
2019-03-27T06:34:59.297Z,102174.77
2019-03-27T06:37:29.747Z,102169.45
2019-03-27T06:40:00.487Z,102170.23
2019-03-27T06:42:30.811Z,102167.27
2019-03-27T06:45:01.547Z,102167.31
2019-03-27T06:47:32.237Z,102170.38
2019-03-27T06:50:02.859Z,102168.70
2019-03-27T06:52:33.563Z,102174.53
2019-03-27T06:55:06.001Z,102182.22
2019-03-27T06:57:36.960Z,102188.05
2019-03-27T07:00:09.404Z,102179.37
2019-03-27T07:02:40.236Z,102170.22
2019-03-27T07:05:10.718Z,102164.84
2019-03-27T07:07:41.492Z,102165.02
2019-03-27T07:10:12.386Z,102165.17
2019-03-27T07:12:43.217Z,102169.48
2019-03-27T07:15:13.818Z,102172.80
2019-03-27T07:17:44.579Z,102179.64
2019-03-27T07:20:15.291Z,102178.30
2019-03-27T07:22:46.223Z,102178.66
2019-03-27T07:25:16.730Z,102178.55
2019-03-27T07:27:47.178Z,102179.78
2019-03-27T07:30:18.175Z,102181.19
2019-03-27T07:32:48.947Z,102178.05
2019-03-27T07:35:19.894Z,102183.90
2019-03-27T07:37:50.522Z,102186.65
2019-03-27T07:40:21.094Z,102190.23
2019-03-27T07:42:51.796Z,102191.05
2019-03-27T07:45:22.346Z,102195.91
2019-03-27T07:47:53.801Z,102196.91
2019-03-27T07:50:24.423Z,102200.84
2019-03-27T07:52:55.180Z,102207.45
2019-03-27T07:55:25.794Z,102202.52
2019-03-27T07:57:56.814Z,102205.53
2019-03-27T08:00:27.574Z,102204.27
2019-03-27T08:02:58.429Z,102208.18
2019-03-27T08:05:29.014Z,102206.73
2019-03-27T08:07:59.629Z,102207.13
2019-03-27T08:10:30.539Z,102200.52
2019-03-27T08:13:01.376Z,102163.62
2019-03-27T08:15:31.782Z,102206.43
2019-03-27T08:18:02.556Z,102217.63
2019-03-27T08:20:33.169Z,102210.95
2019-03-27T08:23:03.751Z,102207.55
2019-03-27T08:25:34.877Z,102211.37
2019-03-27T08:28:06.344Z,102215.24
2019-03-27T08:30:38.242Z,102216.61
2019-03-27T08:33:09.934Z,102218.09
2019-03-27T08:35:41.310Z,102212.84
2019-03-27T08:38:15.084Z,102215.52
2019-03-27T08:40:47.212Z,102222.14
2019-03-27T08:43:21.425Z,102211.56
2019-03-27T08:45:52.407Z,102215.52
2019-03-27T08:48:27.639Z,102219.13
2019-03-27T08:51:00.602Z,102215.54
2019-03-27T08:53:33.454Z,102222.33
2019-03-27T08:56:05.923Z,102222.95
2019-03-27T08:58:39.192Z,102215.63
2019-03-27T09:01:10.422Z,102208.97
2019-03-27T09:03:43.981Z,102219.03
2019-03-27T09:06:15.161Z,102222.62
2019-03-27T09:08:46.940Z,102217.13
2019-03-27T09:11:19.867Z,102220.17
2019-03-27T09:13:51.045Z,102213.83
2019-03-27T09:16:22.070Z,102221.24
2019-03-27T09:18:53.816Z,102219.00
2019-03-27T09:21:26.277Z,102226.55
2019-03-27T09:23:57.289Z,102220.41
2019-03-27T09:26:28.153Z,102218.62
2019-03-27T09:28:58.579Z,102223.19
2019-03-27T09:31:29.510Z,102219.56
2019-03-27T09:34:00.281Z,102216.72
2019-03-27T09:36:31.001Z,102208.18
2019-03-27T09:39:01.629Z,102216.84
2019-03-27T09:41:32.993Z,102209.70
2019-03-27T09:44:03.448Z,102212.55
2019-03-27T09:46:34.050Z,102202.84
2019-03-27T09:49:05.678Z,102207.41
2019-03-27T09:51:37.255Z,102201.42
2019-03-27T09:54:09.090Z,102211.52
2019-03-27T09:56:40.847Z,102197.19
2019-03-27T09:59:11.968Z,102200.11
2019-03-27T10:01:42.988Z,102204.64
2019-03-27T10:04:14.226Z,102198.07
2019-03-27T10:06:46.611Z,102198.63
2019-03-27T10:09:17.182Z,102186.13
2019-03-27T10:11:48.129Z,102190.44
2019-03-27T10:14:18.750Z,102195.02
2019-03-27T10:16:49.303Z,102190.89
2019-03-27T10:19:19.649Z,102194.37
2019-03-27T10:21:50.310Z,102197.43
2019-03-27T10:24:20.868Z,102188.33
2019-03-27T10:26:51.727Z,102202.91
2019-03-27T10:29:23.901Z,102194.92
2019-03-27T10:31:56.080Z,102192.23
2019-03-27T10:34:27.103Z,102187.51
2019-03-27T10:36:57.797Z,102188.86
2019-03-27T10:39:29.015Z,102185.50
2019-03-27T10:41:59.550Z,102194.27
2019-03-27T10:44:30.558Z,102192.08
2019-03-27T10:47:03.457Z,102195.48
2019-03-27T10:49:36.679Z,102198.12
2019-03-27T10:52:07.215Z,102201.24
2019-03-27T10:54:37.849Z,102188.45
2019-03-27T10:57:08.575Z,102188.67
2019-03-27T10:59:41.116Z,102190.10
2019-03-27T11:02:11.840Z,102193.44
2019-03-27T11:04:42.788Z,102201.78
2019-03-27T11:07:13.719Z,102196.01
2019-03-27T11:09:44.833Z,102200.16
2019-03-27T11:12:15.491Z,102190.36
2019-03-27T11:14:46.391Z,102184.41
2019-03-27T11:17:17.342Z,102185.58
2019-03-27T11:19:48.532Z,102184.48
2019-03-27T11:22:19.050Z,102193.23
2019-03-27T11:24:49.816Z,102196.97
2019-03-27T11:27:21.340Z,102190.48
2019-03-27T11:29:52.817Z,102192.58
2019-03-27T11:32:24.764Z,102196.34
2019-03-27T11:34:56.302Z,102193.20
2019-03-27T11:37:26.918Z,102177.45
2019-03-27T11:39:57.526Z,102179.37
2019-03-27T11:42:29.249Z,102183.63
2019-03-27T11:45:00.497Z,102183.36
2019-03-27T11:47:31.465Z,102185.32
2019-03-27T11:50:02.068Z,102186.54
2019-03-27T11:52:33.915Z,102175.23
2019-03-27T11:55:05.349Z,102176.15
2019-03-27T11:57:36.094Z,102168.98
2019-03-27T12:00:09.948Z,102187.98
2019-03-27T12:02:40.440Z,102187.98
2019-03-27T12:05:11.010Z,102189.12
2019-03-27T12:07:42.004Z,102190.30
2019-03-27T12:10:13.100Z,102189.78
2019-03-27T12:12:48.247Z,102189.34
2019-03-27T12:15:21.940Z,102187.93
2019-03-27T12:17:53.040Z,102186.73
2019-03-27T12:20:23.536Z,102187.69
2019-03-27T12:22:57.830Z,102189.08
2019-03-27T12:25:27.072Z,102195.39
2019-03-27T12:27:58.333Z,102196.73
2019-03-27T12:30:29.202Z,102194.20
2019-03-27T12:33:00.194Z,102193.73
2019-03-27T12:35:30.829Z,102190.70
2019-03-27T12:38:04.282Z,102193.52
2019-03-27T12:40:34.509Z,102198.51
2019-03-27T12:43:05.879Z,102205.41
2019-03-27T12:45:36.706Z,102205.99
2019-03-27T12:48:07.844Z,102203.19
2019-03-27T12:50:39.343Z,102202.31
2019-03-27T12:53:09.689Z,102201.24
2019-03-27T12:55:40.921Z,102196.55
2019-03-27T12:58:12.031Z,102200.05
2019-03-27T13:00:43.785Z,102198.44
2019-03-27T13:03:14.697Z,102201.30
2019-03-27T13:05:45.258Z,102198.12
2019-03-27T13:08:15.818Z,102196.05
2019-03-27T13:10:46.294Z,102204.13
2019-03-27T13:13:18.190Z,102198.47
2019-03-27T13:15:48.690Z,102206.05
2019-03-27T13:18:19.560Z,102196.51
2019-03-27T13:20:50.064Z,102201.50
2019-03-27T13:23:21.182Z,102191.94
2019-03-27T13:25:51.618Z,102196.08
2019-03-27T13:28:22.384Z,102194.20
2019-03-27T13:30:53.248Z,102190.80
2019-03-27T13:33:23.623Z,102191.70
2019-03-27T13:35:54.159Z,102195.27
2019-03-27T13:38:24.939Z,102182.64
2019-03-27T13:40:55.691Z,102192.45
2019-03-27T13:43:26.679Z,102192.08
2019-03-27T13:45:57.136Z,102188.81
2019-03-27T13:48:27.825Z,102193.13
2019-03-27T13:50:58.725Z,102191.44
2019-03-27T13:53:29.523Z,102187.14
2019-03-27T13:56:00.305Z,102185.59
2019-03-27T13:58:31.203Z,102190.16
2019-03-27T14:01:01.956Z,102184.04
2019-03-27T14:03:32.904Z,102184.19
2019-03-27T14:06:04.142Z,102188.86
2019-03-27T14:08:36.060Z,102192.48
2019-03-27T14:11:07.177Z,102196.17
2019-03-27T14:13:43.148Z,102193.23
2019-03-27T14:16:12.380Z,102188.73
2019-03-27T14:18:43.572Z,102195.90
2019-03-27T14:21:14.346Z,102194.50
2019-03-27T14:23:44.890Z,102189.30
2019-03-27T14:26:15.665Z,102192.14
2019-03-27T14:28:47.438Z,102196.94
2019-03-27T14:31:18.886Z,102187.94
2019-03-27T14:33:49.341Z,102193.33
2019-03-27T14:36:20.711Z,102191.12
2019-03-27T14:38:51.272Z,102194.34
2019-03-27T14:41:21.879Z,102193.41
2019-03-27T14:43:52.646Z,102190.73
2019-03-27T14:46:24.628Z,102199.55
2019-03-27T14:48:55.301Z,102194.48
2019-03-27T14:51:27.311Z,102196.69
2019-03-27T14:53:58.643Z,102192.28
2019-03-27T14:56:29.814Z,102183.14
2019-03-27T14:59:01.554Z,102183.74
2019-03-27T15:01:35.474Z,102188.20
2019-03-27T15:04:05.413Z,102185.83
2019-03-27T15:06:36.035Z,102188.73
2019-03-27T15:09:08.765Z,102183.59
2019-03-27T15:11:39.775Z,102189.99
2019-03-27T15:14:10.644Z,102190.92
2019-03-27T15:16:41.357Z,102184.38
2019-03-27T15:19:12.438Z,102186.84
2019-03-27T15:21:43.567Z,102182.80
2019-03-27T15:24:15.902Z,102182.80
2019-03-27T15:26:46.775Z,102180.81
2019-03-27T15:29:18.508Z,102187.60
2019-03-27T15:31:50.136Z,102178.36
2019-03-27T15:34:21.045Z,102182.20
2019-03-27T15:36:52.318Z,102180.72
2019-03-27T15:39:22.892Z,102189.54
2019-03-27T15:41:53.396Z,102178.64
2019-03-27T15:44:24.506Z,102182.42
2019-03-27T15:46:58.817Z,102186.83
2019-03-27T15:49:29.876Z,102177.73
2019-03-27T15:52:01.741Z,102178.30
2019-03-27T15:54:32.416Z,102176.59
2019-03-27T15:57:03.272Z,102166.00
2019-03-27T15:59:33.689Z,102170.22
2019-03-27T16:02:07.055Z,102173.54
2019-03-27T16:04:38.858Z,102178.06
2019-03-27T16:07:09.632Z,102164.69
2019-03-27T16:09:40.151Z,102160.38
2019-03-27T16:12:10.813Z,102167.97
2019-03-27T16:14:41.462Z,102164.55
2019-03-27T16:17:13.698Z,102168.15
2019-03-27T16:19:44.581Z,102170.79
2019-03-27T16:22:15.618Z,102168.61
2019-03-27T16:24:46.725Z,102162.91
2019-03-27T16:27:17.927Z,102162.91
2019-03-27T16:29:48.703Z,102165.19
2019-03-27T16:32:19.824Z,102159.56
2019-03-27T16:34:50.958Z,102162.23
2019-03-27T16:37:21.697Z,102158.29
2019-03-27T16:39:53.023Z,102152.98
2019-03-27T16:42:23.501Z,102162.41
2019-03-27T16:44:55.614Z,102156.72
2019-03-27T16:47:26.336Z,102157.03
2019-03-27T16:49:57.065Z,102159.83
2019-03-27T16:52:27.933Z,102167.06
2019-03-27T16:54:59.331Z,102167.61
2019-03-27T16:57:30.161Z,102169.00
2019-03-27T17:00:00.750Z,102169.97
2019-03-27T17:02:32.480Z,102165.16
2019-03-27T17:05:04.098Z,102165.72
2019-03-27T17:07:34.867Z,102167.08
2019-03-27T17:10:07.400Z,102168.02
2019-03-27T17:12:39.334Z,102174.22
2019-03-27T17:15:11.160Z,102171.66
2019-03-27T17:17:42.274Z,102174.80
2019-03-27T17:20:13.346Z,102174.39
2019-03-27T17:22:44.403Z,102175.29
2019-03-27T17:25:15.380Z,102179.28
2019-03-27T17:27:46.137Z,102174.42
2019-03-27T17:30:17.470Z,102176.23
2019-03-27T17:32:49.796Z,102178.92
2019-03-27T17:35:21.072Z,102181.16
2019-03-27T17:37:51.987Z,102179.85
2019-03-27T17:40:23.207Z,102183.88
2019-03-27T17:42:54.999Z,102178.62
2019-03-27T17:45:25.982Z,102191.96
2019-03-27T17:47:57.939Z,102179.14
2019-03-27T17:50:29.566Z,102192.47
2019-03-27T17:53:00.662Z,102195.13
2019-03-27T17:55:31.432Z,102186.34
2019-03-27T17:58:02.432Z,102192.17
2019-03-27T18:00:42.161Z,102198.47
2019-03-27T18:03:13.935Z,102198.56
2019-03-27T18:05:45.818Z,102195.06
2019-03-27T18:08:16.721Z,102199.13
2019-03-27T18:10:49.167Z,102197.84
2019-03-27T18:13:20.132Z,102204.07
2019-03-27T18:15:50.901Z,102203.22
2019-03-27T18:18:23.046Z,102206.77
2019-03-27T18:20:53.472Z,102195.25
2019-03-27T18:23:24.295Z,102206.77
2019-03-27T18:25:55.245Z,102196.13
2019-03-27T18:28:26.562Z,102201.52
2019-03-27T18:30:57.308Z,102205.92
2019-03-27T18:33:28.737Z,102205.92
2019-03-27T18:36:01.199Z,102202.39
2019-03-27T18:38:33.295Z,102200.59
2019-03-27T18:41:06.373Z,102212.95
2019-03-27T18:43:37.756Z,102206.30
2019-03-27T18:46:08.658Z,102211.16
2019-03-27T18:48:39.496Z,102214.27
2019-03-27T18:51:10.169Z,102212.91
2019-03-27T18:53:41.771Z,102220.44
2019-03-27T18:56:13.712Z,102215.97
2019-03-27T18:58:44.545Z,102208.84
2019-03-27T19:01:15.347Z,102212.82
2019-03-27T19:03:48.802Z,102205.31
2019-03-27T19:06:19.414Z,102215.50
2019-03-27T19:08:51.643Z,102224.41
2019-03-27T19:11:22.516Z,102227.11
2019-03-27T19:13:58.503Z,102216.94
2019-03-27T19:16:29.789Z,102221.40
2019-03-27T19:19:00.715Z,102222.80
2019-03-27T19:21:31.669Z,102229.03
2019-03-27T19:24:13.203Z,102224.72
2019-03-27T19:26:34.773Z,102221.24
2019-03-27T19:29:05.428Z,102220.44
2019-03-27T19:31:36.113Z,102218.64
2019-03-27T19:34:09.055Z,102224.43
2019-03-27T19:36:39.481Z,102212.87
2019-03-27T19:39:10.446Z,102212.01
2019-03-27T19:41:41.856Z,102213.80
2019-03-27T19:44:13.519Z,102212.97
2019-03-27T19:46:44.629Z,102215.63
2019-03-27T19:49:15.210Z,102211.31
2019-03-27T19:51:47.334Z,102213.12
2019-03-27T19:54:27.148Z,102214.92
2019-03-27T19:56:53.520Z,102204.30
2019-03-27T19:59:27.376Z,102209.70
2019-03-27T20:01:58.998Z,102214.16
2019-03-27T20:04:29.939Z,102218.16
2019-03-27T20:07:01.139Z,102213.77
2019-03-27T20:09:31.842Z,102213.41
2019-03-27T20:12:02.286Z,102217.02
2019-03-27T20:14:33.730Z,102213.52
2019-03-27T20:17:07.702Z,102217.98
2019-03-27T20:19:38.816Z,102209.20
2019-03-27T20:22:10.369Z,102206.56
2019-03-27T20:24:41.490Z,102210.13
2019-03-27T20:27:13.043Z,102207.95
2019-03-27T20:29:46.523Z,102206.17
2019-03-27T20:32:19.562Z,102210.64
2019-03-27T20:34:52.032Z,102203.58
2019-03-27T20:37:24.203Z,102205.38
2019-03-27T20:39:55.346Z,102199.19
2019-03-27T20:42:26.930Z,102201.41
2019-03-27T20:45:00.401Z,102200.09
2019-03-27T20:47:32.351Z,102200.09
2019-03-27T20:50:03.148Z,102202.34
2019-03-27T20:52:34.186Z,102203.66
2019-03-27T20:55:07.936Z,102205.86
2019-03-27T20:57:38.689Z,102197.88
2019-03-27T21:00:09.336Z,102199.66
2019-03-27T21:02:40.429Z,102200.53
2019-03-27T21:05:12.483Z,102200.53
2019-03-27T21:07:44.171Z,102198.28
2019-03-27T21:10:14.773Z,102199.14
2019-03-27T21:12:47.706Z,102202.66
2019-03-27T21:15:19.751Z,102199.13
2019-03-27T21:17:50.211Z,102200.86
2019-03-27T21:20:21.151Z,102196.88
2019-03-27T21:22:51.983Z,102196.02
2019-03-27T21:25:22.589Z,102192.89
2019-03-27T21:27:53.343Z,102199.12
2019-03-27T21:30:23.923Z,102194.66
2019-03-27T21:32:54.516Z,102199.05
2019-03-27T21:35:25.480Z,102193.73
2019-03-27T21:37:56.188Z,102194.19
2019-03-27T21:40:26.824Z,102194.65
2019-03-27T21:42:57.958Z,102204.36
2019-03-27T21:45:28.360Z,102192.80
2019-03-27T21:47:58.988Z,102196.36
2019-03-27T21:50:31.131Z,102202.53
2019-03-27T21:53:01.648Z,102200.30
2019-03-27T21:55:42.651Z,102201.63
2019-03-27T21:58:07.550Z,102206.53
2019-03-27T22:00:39.314Z,102195.45
2019-03-27T22:03:09.991Z,102195.03
2019-03-27T22:05:40.529Z,102195.91
2019-03-27T22:08:11.596Z,102197.69
2019-03-27T22:10:42.225Z,102197.22
2019-03-27T22:13:12.949Z,102201.62
2019-03-27T22:15:45.094Z,102202.93
2019-03-27T22:18:15.610Z,102199.36
2019-03-27T22:20:46.423Z,102202.87
2019-03-27T22:23:17.145Z,102202.87
2019-03-27T22:25:47.805Z,102195.74
2019-03-27T22:28:18.689Z,102201.05
2019-03-27T22:30:49.746Z,102202.38
2019-03-27T22:33:25.983Z,102193.94
2019-03-27T22:35:56.551Z,102195.71
2019-03-27T22:38:28.033Z,102193.91
2019-03-27T22:40:59.346Z,102191.72
2019-03-27T22:43:30.643Z,102195.25
2019-03-27T22:46:01.105Z,102200.09
2019-03-27T22:48:31.722Z,102202.76
2019-03-27T22:51:02.711Z,102204.95
2019-03-27T22:53:34.078Z,102209.81
2019-03-27T22:56:06.690Z,102208.48
2019-03-27T22:58:37.286Z,102212.92
2019-03-27T23:01:08.145Z,102213.79
2019-03-27T23:03:40.663Z,102214.25
2019-03-27T23:06:11.280Z,102213.40
2019-03-27T23:08:42.245Z,102212.07
2019-03-27T23:11:12.636Z,102219.13
2019-03-27T23:13:44.473Z,102214.27
2019-03-27T23:16:15.052Z,102215.58
2019-03-27T23:18:45.885Z,102213.80
2019-03-27T23:21:16.645Z,102217.85
2019-03-27T23:23:47.383Z,102216.47
2019-03-27T23:26:17.871Z,102218.24
2019-03-27T23:28:48.496Z,102218.26
2019-03-27T23:31:19.117Z,102203.64
2019-03-27T23:33:49.643Z,102207.22
2019-03-27T23:36:20.040Z,102212.56
2019-03-27T23:38:50.496Z,102210.81
2019-03-27T23:41:21.120Z,102211.77
2019-03-27T23:43:52.042Z,102210.44
2019-03-27T23:46:22.393Z,102207.34
2019-03-27T23:48:53.078Z,102206.95
2019-03-27T23:51:23.690Z,102206.56
2019-03-27T23:53:54.435Z,102204.36
2019-03-27T23:56:24.938Z,102199.92
2019-03-27T23:58:55.951Z,102198.59
